sensor_id;sensor_type;location;lat;lon;timestamp;P1;durP1;ratioP1;P2;durP2;ratioP2
58372;SDS011;44177;43.356;27.672;2022-12-29T00:01:13;2.72;;;1.73;;
58372;SDS011;44177;43.356;27.672;2022-12-29T00:03:39;1.45;;;1.17;;
58372;SDS011;44177;43.356;27.672;2022-12-29T00:06:04;2.72;;;1.52;;
58372;SDS011;44177;43.356;27.672;2022-12-29T00:08:30;1.52;;;1.42;;
58372;SDS011;44177;43.356;27.672;2022-12-29T00:11:08;1.48;;;1.30;;
58372;SDS011;44177;43.356;27.672;2022-12-29T00:13:35;1.75;;;1.40;;
58372;SDS011;44177;43.356;27.672;2022-12-29T00:16:19;2.15;;;1.58;;
58372;SDS011;44177;43.356;27.672;2022-12-29T00:18:45;2.60;;;1.50;;
58372;SDS011;44177;43.356;27.672;2022-12-29T00:21:14;1.83;;;1.40;;
58372;SDS011;44177;43.356;27.672;2022-12-29T00:23:58;2.45;;;1.40;;
58372;SDS011;44177;43.356;27.672;2022-12-29T00:26:43;2.67;;;1.42;;
58372;SDS011;44177;43.356;27.672;2022-12-29T00:29:27;1.73;;;1.52;;
58372;SDS011;44177;43.356;27.672;2022-12-29T00:32:11;1.73;;;1.30;;
58372;SDS011;44177;43.356;27.672;2022-12-29T00:34:55;2.75;;;1.42;;
58372;SDS011;44177;43.356;27.672;2022-12-29T00:37:42;2.72;;;1.30;;
58372;SDS011;44177;43.356;27.672;2022-12-29T00:40:27;1.98;;;1.33;;
58372;SDS011;44177;43.356;27.672;2022-12-29T00:43:11;3.97;;;1.45;;
58372;SDS011;44177;43.356;27.672;2022-12-29T00:45:55;1.92;;;1.30;;
58372;SDS011;44177;43.356;27.672;2022-12-29T00:48:21;2.00;;;1.27;;
58372;SDS011;44177;43.356;27.672;2022-12-29T00:51:06;2.17;;;1.50;;
58372;SDS011;44177;43.356;27.672;2022-12-29T00:53:32;2.28;;;1.17;;
58372;SDS011;44177;43.356;27.672;2022-12-29T00:55:57;2.85;;;1.40;;
58372;SDS011;44177;43.356;27.672;2022-12-29T00:58:23;1.60;;;1.20;;
58372;SDS011;44177;43.356;27.672;2022-12-29T01:00:48;1.42;;;1.25;;
58372;SDS011;44177;43.356;27.672;2022-12-29T01:03:14;1.67;;;1.30;;
58372;SDS011;44177;43.356;27.672;2022-12-29T01:05:39;1.77;;;1.27;;
58372;SDS011;44177;43.356;27.672;2022-12-29T01:08:05;1.58;;;1.40;;
58372;SDS011;44177;43.356;27.672;2022-12-29T01:10:30;2.35;;;1.50;;
58372;SDS011;44177;43.356;27.672;2022-12-29T01:12:56;2.40;;;1.48;;
58372;SDS011;44177;43.356;27.672;2022-12-29T01:15:21;2.88;;;1.40;;
58372;SDS011;44177;43.356;27.672;2022-12-29T01:17:47;3.38;;;1.45;;
58372;SDS011;44177;43.356;27.672;2022-12-29T01:20:12;2.28;;;1.40;;
58372;SDS011;44177;43.356;27.672;2022-12-29T01:22:38;1.88;;;1.20;;
58372;SDS011;44177;43.356;27.672;2022-12-29T01:25:04;1.90;;;1.30;;
58372;SDS011;44177;43.356;27.672;2022-12-29T01:27:30;1.35;;;1.25;;
58372;SDS011;44177;43.356;27.672;2022-12-29T01:29:56;1.75;;;1.40;;
58372;SDS011;44177;43.356;27.672;2022-12-29T01:32:21;1.83;;;1.40;;
58372;SDS011;44177;43.356;27.672;2022-12-29T01:34:48;1.65;;;1.20;;
58372;SDS011;44177;43.356;27.672;2022-12-29T01:37:13;1.67;;;1.20;;
58372;SDS011;44177;43.356;27.672;2022-12-29T01:39:39;2.75;;;1.38;;
58372;SDS011;44177;43.356;27.672;2022-12-29T01:42:05;1.55;;;1.10;;
58372;SDS011;44177;43.356;27.672;2022-12-29T01:47:13;1.20;;;1.02;;
58372;SDS011;44177;43.356;27.672;2022-12-29T01:49:43;2.35;;;1.20;;
58372;SDS011;44177;43.356;27.672;2022-12-29T01:52:09;1.73;;;1.35;;
58372;SDS011;44177;43.356;27.672;2022-12-29T01:54:42;2.72;;;1.38;;
58372;SDS011;44177;43.356;27.672;2022-12-29T01:57:15;2.03;;;1.52;;
58372;SDS011;44177;43.356;27.672;2022-12-29T01:59:55;1.65;;;1.42;;
58372;SDS011;44177;43.356;27.672;2022-12-29T02:02:33;1.90;;;1.27;;
58372;SDS011;44177;43.356;27.672;2022-12-29T02:04:59;1.88;;;1.30;;
58372;SDS011;44177;43.356;27.672;2022-12-29T02:07:32;1.75;;;1.23;;
58372;SDS011;44177;43.356;27.672;2022-12-29T02:09:57;2.08;;;1.48;;
58372;SDS011;44177;43.356;27.672;2022-12-29T02:12:25;1.30;;;1.10;;
58372;SDS011;44177;43.356;27.672;2022-12-29T02:14:53;1.52;;;1.20;;
58372;SDS011;44177;43.356;27.672;2022-12-29T02:17:26;2.42;;;1.30;;
58372;SDS011;44177;43.356;27.672;2022-12-29T02:20:33;2.58;;;1.33;;
58372;SDS011;44177;43.356;27.672;2022-12-29T02:31:36;1.50;;;1.13;;
58372;SDS011;44177;43.356;27.672;2022-12-29T02:37:22;1.73;;;1.27;;
58372;SDS011;44177;43.356;27.672;2022-12-29T02:45:38;2.15;;;1.10;;
58372;SDS011;44177;43.356;27.672;2022-12-29T02:51:03;1.30;;;1.02;;
58372;SDS011;44177;43.356;27.672;2022-12-29T02:53:32;1.63;;;1.10;;
58372;SDS011;44177;43.356;27.672;2022-12-29T02:56:19;1.95;;;1.30;;
58372;SDS011;44177;43.356;27.672;2022-12-29T02:58:44;1.42;;;1.10;;
58372;SDS011;44177;43.356;27.672;2022-12-29T03:01:21;1.55;;;1.25;;
58372;SDS011;44177;43.356;27.672;2022-12-29T03:12:21;2.20;;;1.30;;
58372;SDS011;44177;43.356;27.672;2022-12-29T03:18:41;2.45;;;1.30;;
58372;SDS011;44177;43.356;27.672;2022-12-29T03:24:15;1.85;;;1.17;;
58372;SDS011;44177;43.356;27.672;2022-12-29T03:26:44;2.10;;;1.02;;
58372;SDS011;44177;43.356;27.672;2022-12-29T03:29:11;1.80;;;1.10;;
58372;SDS011;44177;43.356;27.672;2022-12-29T03:31:38;1.83;;;1.20;;
58372;SDS011;44177;43.356;27.672;2022-12-29T03:34:07;1.98;;;1.20;;
58372;SDS011;44177;43.356;27.672;2022-12-29T03:36:58;1.45;;;1.17;;
58372;SDS011;44177;43.356;27.672;2022-12-29T03:39:27;1.92;;;1.00;;
58372;SDS011;44177;43.356;27.672;2022-12-29T03:42:03;1.55;;;1.10;;
58372;SDS011;44177;43.356;27.672;2022-12-29T03:44:35;2.15;;;1.27;;
58372;SDS011;44177;43.356;27.672;2022-12-29T03:47:02;2.35;;;1.20;;
58372;SDS011;44177;43.356;27.672;2022-12-29T03:49:28;2.50;;;1.10;;
58372;SDS011;44177;43.356;27.672;2022-12-29T03:51:53;1.83;;;1.40;;
58372;SDS011;44177;43.356;27.672;2022-12-29T03:54:19;1.73;;;1.20;;
58372;SDS011;44177;43.356;27.672;2022-12-29T03:56:44;1.30;;;1.13;;
58372;SDS011;44177;43.356;27.672;2022-12-29T03:59:10;1.63;;;1.30;;
58372;SDS011;44177;43.356;27.672;2022-12-29T04:01:35;1.92;;;1.08;;
58372;SDS011;44177;43.356;27.672;2022-12-29T04:04:01;1.88;;;1.15;;
58372;SDS011;44177;43.356;27.672;2022-12-29T04:06:26;3.35;;;1.55;;
58372;SDS011;44177;43.356;27.672;2022-12-29T04:08:52;1.48;;;1.10;;
58372;SDS011;44177;43.356;27.672;2022-12-29T04:11:17;1.00;;;0.90;;
58372;SDS011;44177;43.356;27.672;2022-12-29T04:13:43;3.45;;;1.20;;
58372;SDS011;44177;43.356;27.672;2022-12-29T04:16:08;1.67;;;1.10;;
58372;SDS011;44177;43.356;27.672;2022-12-29T04:18:34;2.22;;;1.10;;
58372;SDS011;44177;43.356;27.672;2022-12-29T04:20:59;1.65;;;1.30;;
58372;SDS011;44177;43.356;27.672;2022-12-29T04:23:25;1.70;;;1.13;;
58372;SDS011;44177;43.356;27.672;2022-12-29T04:25:52;0.82;;;0.82;;
58372;SDS011;44177;43.356;27.672;2022-12-29T04:28:18;1.52;;;0.98;;
58372;SDS011;44177;43.356;27.672;2022-12-29T04:30:43;1.92;;;1.17;;
58372;SDS011;44177;43.356;27.672;2022-12-29T04:33:09;1.25;;;0.98;;
58372;SDS011;44177;43.356;27.672;2022-12-29T04:35:35;1.67;;;1.10;;
58372;SDS011;44177;43.356;27.672;2022-12-29T04:38:01;2.13;;;1.10;;
58372;SDS011;44177;43.356;27.672;2022-12-29T04:40:26;2.38;;;1.00;;
58372;SDS011;44177;43.356;27.672;2022-12-29T04:42:52;2.40;;;1.20;;
58372;SDS011;44177;43.356;27.672;2022-12-29T04:45:17;1.67;;;1.15;;
58372;SDS011;44177;43.356;27.672;2022-12-29T04:47:43;1.17;;;0.93;;
58372;SDS011;44177;43.356;27.672;2022-12-29T04:50:08;1.52;;;1.10;;
58372;SDS011;44177;43.356;27.672;2022-12-29T04:52:34;1.50;;;1.02;;
58372;SDS011;44177;43.356;27.672;2022-12-29T04:55:00;2.10;;;1.25;;
58372;SDS011;44177;43.356;27.672;2022-12-29T04:57:26;1.67;;;1.25;;
58372;SDS011;44177;43.356;27.672;2022-12-29T04:59:52;1.13;;;0.98;;
58372;SDS011;44177;43.356;27.672;2022-12-29T05:02:17;2.15;;;1.10;;
58372;SDS011;44177;43.356;27.672;2022-12-29T05:04:43;1.98;;;1.33;;
58372;SDS011;44177;43.356;27.672;2022-12-29T05:07:09;1.25;;;1.05;;
58372;SDS011;44177;43.356;27.672;2022-12-29T05:09:34;1.60;;;1.00;;
58372;SDS011;44177;43.356;27.672;2022-12-29T05:12:00;2.08;;;1.20;;
58372;SDS011;44177;43.356;27.672;2022-12-29T05:14:25;1.38;;;1.20;;
58372;SDS011;44177;43.356;27.672;2022-12-29T05:16:51;1.50;;;1.40;;
58372;SDS011;44177;43.356;27.672;2022-12-29T05:20:15;1.52;;;1.10;;
58372;SDS011;44177;43.356;27.672;2022-12-29T05:22:41;1.55;;;1.45;;
58372;SDS011;44177;43.356;27.672;2022-12-29T05:25:07;1.65;;;1.00;;
58372;SDS011;44177;43.356;27.672;2022-12-29T05:27:32;1.20;;;1.10;;
58372;SDS011;44177;43.356;27.672;2022-12-29T05:29:58;1.50;;;1.20;;
58372;SDS011;44177;43.356;27.672;2022-12-29T05:32:23;2.13;;;1.15;;
58372;SDS011;44177;43.356;27.672;2022-12-29T05:34:49;1.70;;;1.40;;
58372;SDS011;44177;43.356;27.672;2022-12-29T05:37:14;1.90;;;1.30;;
58372;SDS011;44177;43.356;27.672;2022-12-29T05:39:40;1.88;;;1.15;;
58372;SDS011;44177;43.356;27.672;2022-12-29T05:42:06;1.55;;;1.30;;
58372;SDS011;44177;43.356;27.672;2022-12-29T05:44:31;3.92;;;1.40;;
58372;SDS011;44177;43.356;27.672;2022-12-29T05:46:57;1.55;;;1.45;;
58372;SDS011;44177;43.356;27.672;2022-12-29T05:49:22;2.78;;;1.60;;
58372;SDS011;44177;43.356;27.672;2022-12-29T05:55:09;11.50;;;4.45;;
58372;SDS011;44177;43.356;27.672;2022-12-29T05:57:35;12.65;;;5.10;;
58372;SDS011;44177;43.356;27.672;2022-12-29T06:00:01;10.05;;;3.67;;
58372;SDS011;44177;43.356;27.672;2022-12-29T06:02:28;7.50;;;3.40;;
58372;SDS011;44177;43.356;27.672;2022-12-29T06:04:54;5.72;;;2.80;;
58372;SDS011;44177;43.356;27.672;2022-12-29T06:07:19;6.45;;;2.53;;
58372;SDS011;44177;43.356;27.672;2022-12-29T06:09:45;7.70;;;3.20;;
58372;SDS011;44177;43.356;27.672;2022-12-29T06:12:10;9.25;;;3.63;;
58372;SDS011;44177;43.356;27.672;2022-12-29T06:14:36;7.00;;;3.42;;
58372;SDS011;44177;43.356;27.672;2022-12-29T06:17:01;8.93;;;3.50;;
58372;SDS011;44177;43.356;27.672;2022-12-29T06:19:27;8.40;;;3.80;;
58372;SDS011;44177;43.356;27.672;2022-12-29T06:21:52;6.95;;;2.75;;
58372;SDS011;44177;43.356;27.672;2022-12-29T06:24:18;8.45;;;3.67;;
58372;SDS011;44177;43.356;27.672;2022-12-29T06:26:44;7.93;;;3.60;;
58372;SDS011;44177;43.356;27.672;2022-12-29T06:29:09;7.70;;;3.42;;
58372;SDS011;44177;43.356;27.672;2022-12-29T06:31:35;6.68;;;2.92;;
58372;SDS011;44177;43.356;27.672;2022-12-29T06:34:01;7.25;;;3.05;;
58372;SDS011;44177;43.356;27.672;2022-12-29T06:36:27;7.43;;;3.35;;
58372;SDS011;44177;43.356;27.672;2022-12-29T06:38:53;8.63;;;3.72;;
58372;SDS011;44177;43.356;27.672;2022-12-29T06:41:19;6.57;;;3.22;;
58372;SDS011;44177;43.356;27.672;2022-12-29T06:43:45;7.45;;;3.22;;
58372;SDS011;44177;43.356;27.672;2022-12-29T06:46:11;7.68;;;3.60;;
58372;SDS011;44177;43.356;27.672;2022-12-29T06:48:36;7.40;;;2.95;;
58372;SDS011;44177;43.356;27.672;2022-12-29T06:51:02;5.82;;;3.40;;
58372;SDS011;44177;43.356;27.672;2022-12-29T06:53:28;6.60;;;3.25;;
58372;SDS011;44177;43.356;27.672;2022-12-29T06:55:53;8.70;;;3.45;;
58372;SDS011;44177;43.356;27.672;2022-12-29T06:58:19;8.02;;;3.08;;
58372;SDS011;44177;43.356;27.672;2022-12-29T07:00:44;6.80;;;3.50;;
58372;SDS011;44177;43.356;27.672;2022-12-29T07:03:10;6.25;;;3.08;;
58372;SDS011;44177;43.356;27.672;2022-12-29T07:05:35;7.75;;;3.47;;
58372;SDS011;44177;43.356;27.672;2022-12-29T07:08:01;7.72;;;3.60;;
58372;SDS011;44177;43.356;27.672;2022-12-29T07:10:27;6.28;;;3.42;;
58372;SDS011;44177;43.356;27.672;2022-12-29T07:12:52;8.55;;;3.50;;
58372;SDS011;44177;43.356;27.672;2022-12-29T07:15:18;6.20;;;3.45;;
58372;SDS011;44177;43.356;27.672;2022-12-29T07:17:43;7.50;;;3.40;;
58372;SDS011;44177;43.356;27.672;2022-12-29T07:20:09;8.52;;;3.55;;
58372;SDS011;44177;43.356;27.672;2022-12-29T07:22:35;6.88;;;3.30;;
58372;SDS011;44177;43.356;27.672;2022-12-29T07:25:01;7.43;;;3.28;;
58372;SDS011;44177;43.356;27.672;2022-12-29T07:27:28;8.38;;;3.45;;
58372;SDS011;44177;43.356;27.672;2022-12-29T07:29:53;7.10;;;3.60;;
58372;SDS011;44177;43.356;27.672;2022-12-29T07:32:19;8.13;;;4.13;;
58372;SDS011;44177;43.356;27.672;2022-12-29T07:34:44;6.65;;;3.28;;
58372;SDS011;44177;43.356;27.672;2022-12-29T07:37:12;7.95;;;3.67;;
58372;SDS011;44177;43.356;27.672;2022-12-29T07:39:39;7.63;;;3.50;;
58372;SDS011;44177;43.356;27.672;2022-12-29T07:42:04;8.77;;;3.83;;
58372;SDS011;44177;43.356;27.672;2022-12-29T07:44:30;7.50;;;3.72;;
58372;SDS011;44177;43.356;27.672;2022-12-29T07:46:55;7.47;;;3.22;;
58372;SDS011;44177;43.356;27.672;2022-12-29T07:49:20;7.38;;;3.17;;
58372;SDS011;44177;43.356;27.672;2022-12-29T07:51:46;7.78;;;2.95;;
58372;SDS011;44177;43.356;27.672;2022-12-29T07:54:11;6.13;;;3.20;;
58372;SDS011;44177;43.356;27.672;2022-12-29T07:56:37;5.18;;;3.17;;
58372;SDS011;44177;43.356;27.672;2022-12-29T07:59:03;6.45;;;3.20;;
58372;SDS011;44177;43.356;27.672;2022-12-29T08:01:28;6.18;;;3.13;;
58372;SDS011;44177;43.356;27.672;2022-12-29T08:03:54;6.32;;;3.13;;
58372;SDS011;44177;43.356;27.672;2022-12-29T08:06:19;6.13;;;3.17;;
58372;SDS011;44177;43.356;27.672;2022-12-29T08:08:45;6.50;;;3.40;;
58372;SDS011;44177;43.356;27.672;2022-12-29T08:11:10;5.45;;;3.00;;
58372;SDS011;44177;43.356;27.672;2022-12-29T08:13:36;6.20;;;3.17;;
58372;SDS011;44177;43.356;27.672;2022-12-29T08:16:01;6.57;;;2.90;;
58372;SDS011;44177;43.356;27.672;2022-12-29T08:18:27;5.68;;;2.90;;
58372;SDS011;44177;43.356;27.672;2022-12-29T08:20:52;6.75;;;3.30;;
58372;SDS011;44177;43.356;27.672;2022-12-29T08:23:18;5.57;;;2.90;;
58372;SDS011;44177;43.356;27.672;2022-12-29T08:25:43;4.72;;;2.40;;
58372;SDS011;44177;43.356;27.672;2022-12-29T08:28:09;6.20;;;3.00;;
58372;SDS011;44177;43.356;27.672;2022-12-29T08:30:35;5.80;;;2.55;;
58372;SDS011;44177;43.356;27.672;2022-12-29T08:33:01;5.75;;;2.88;;
58372;SDS011;44177;43.356;27.672;2022-12-29T08:35:26;6.05;;;2.95;;
58372;SDS011;44177;43.356;27.672;2022-12-29T08:37:52;5.80;;;2.75;;
58372;SDS011;44177;43.356;27.672;2022-12-29T08:40:17;4.82;;;2.80;;
58372;SDS011;44177;43.356;27.672;2022-12-29T08:42:43;5.88;;;2.80;;
58372;SDS011;44177;43.356;27.672;2022-12-29T08:45:08;4.82;;;2.47;;
58372;SDS011;44177;43.356;27.672;2022-12-29T08:47:34;3.85;;;2.55;;
58372;SDS011;44177;43.356;27.672;2022-12-29T08:50:00;5.05;;;2.78;;
58372;SDS011;44177;43.356;27.672;2022-12-29T08:52:25;5.07;;;2.78;;
58372;SDS011;44177;43.356;27.672;2022-12-29T08:54:51;5.00;;;2.58;;
58372;SDS011;44177;43.356;27.672;2022-12-29T08:57:17;5.13;;;2.45;;
58372;SDS011;44177;43.356;27.672;2022-12-29T08:59:42;5.45;;;2.42;;
58372;SDS011;44177;43.356;27.672;2022-12-29T09:02:11;6.25;;;3.10;;
58372;SDS011;44177;43.356;27.672;2022-12-29T09:04:37;3.72;;;2.50;;
58372;SDS011;44177;43.356;27.672;2022-12-29T09:07:02;4.03;;;2.50;;
58372;SDS011;44177;43.356;27.672;2022-12-29T09:09:27;5.07;;;2.50;;
58372;SDS011;44177;43.356;27.672;2022-12-29T09:11:53;4.40;;;2.72;;
58372;SDS011;44177;43.356;27.672;2022-12-29T09:14:18;5.40;;;2.47;;
58372;SDS011;44177;43.356;27.672;2022-12-29T09:16:44;4.03;;;2.50;;
58372;SDS011;44177;43.356;27.672;2022-12-29T09:19:28;6.18;;;2.50;;
58372;SDS011;44177;43.356;27.672;2022-12-29T09:21:55;4.25;;;2.42;;
58372;SDS011;44177;43.356;27.672;2022-12-29T09:24:20;3.60;;;2.50;;
58372;SDS011;44177;43.356;27.672;2022-12-29T09:26:46;3.38;;;2.28;;
58372;SDS011;44177;43.356;27.672;2022-12-29T09:29:11;4.38;;;2.90;;
58372;SDS011;44177;43.356;27.672;2022-12-29T09:31:36;3.85;;;2.50;;
58372;SDS011;44177;43.356;27.672;2022-12-29T09:34:02;4.13;;;2.63;;
58372;SDS011;44177;43.356;27.672;2022-12-29T09:36:27;4.03;;;2.63;;
58372;SDS011;44177;43.356;27.672;2022-12-29T09:38:53;5.07;;;2.50;;
58372;SDS011;44177;43.356;27.672;2022-12-29T09:41:26;2.78;;;2.17;;
58372;SDS011;44177;43.356;27.672;2022-12-29T09:46:34;3.28;;;2.28;;
58372;SDS011;44177;43.356;27.672;2022-12-29T09:49:11;4.47;;;2.47;;
58372;SDS011;44177;43.356;27.672;2022-12-29T09:52:00;4.50;;;2.70;;
58372;SDS011;44177;43.356;27.672;2022-12-29T09:54:40;4.85;;;2.53;;
58372;SDS011;44177;43.356;27.672;2022-12-29T09:57:28;4.30;;;2.40;;
58372;SDS011;44177;43.356;27.672;2022-12-29T10:00:00;4.32;;;2.20;;
58372;SDS011;44177;43.356;27.672;2022-12-29T10:02:39;3.88;;;2.30;;
58372;SDS011;44177;43.356;27.672;2022-12-29T10:05:17;2.95;;;2.20;;
58372;SDS011;44177;43.356;27.672;2022-12-29T10:16:34;4.00;;;2.53;;
58372;SDS011;44177;43.356;27.672;2022-12-29T10:24:12;4.05;;;2.40;;
58372;SDS011;44177;43.356;27.672;2022-12-29T10:26:43;3.70;;;2.30;;
58372;SDS011;44177;43.356;27.672;2022-12-29T10:29:18;4.03;;;2.47;;
58372;SDS011;44177;43.356;27.672;2022-12-29T10:31:50;3.42;;;2.47;;
58372;SDS011;44177;43.356;27.672;2022-12-29T10:34:22;4.68;;;2.40;;
58372;SDS011;44177;43.356;27.672;2022-12-29T10:36:54;3.83;;;2.60;;
58372;SDS011;44177;43.356;27.672;2022-12-29T10:44:40;3.90;;;3.00;;
58372;SDS011;44177;43.356;27.672;2022-12-29T10:47:08;3.75;;;2.45;;
58372;SDS011;44177;43.356;27.672;2022-12-29T10:49:40;3.80;;;2.60;;
58372;SDS011;44177;43.356;27.672;2022-12-29T10:52:09;3.13;;;2.42;;
58372;SDS011;44177;43.356;27.672;2022-12-29T10:54:49;5.15;;;2.55;;
58372;SDS011;44177;43.356;27.672;2022-12-29T10:57:37;4.25;;;2.40;;
58372;SDS011;44177;43.356;27.672;2022-12-29T11:00:16;3.30;;;2.40;;
58372;SDS011;44177;43.356;27.672;2022-12-29T11:11:23;5.45;;;3.05;;
58372;SDS011;44177;43.356;27.672;2022-12-29T11:13:55;3.50;;;2.70;;
58372;SDS011;44177;43.356;27.672;2022-12-29T11:16:29;4.03;;;2.47;;
58372;SDS011;44177;43.356;27.672;2022-12-29T11:18:57;3.55;;;2.50;;
58372;SDS011;44177;43.356;27.672;2022-12-29T11:23:55;3.38;;;2.38;;
58372;SDS011;44177;43.356;27.672;2022-12-29T11:26:29;3.95;;;2.60;;
58372;SDS011;44177;43.356;27.672;2022-12-29T11:29:30;4.90;;;2.65;;
58372;SDS011;44177;43.356;27.672;2022-12-29T11:31:52;4.25;;;2.60;;
58372;SDS011;44177;43.356;27.672;2022-12-29T11:34:33;4.82;;;2.70;;
58372;SDS011;44177;43.356;27.672;2022-12-29T11:37:02;3.42;;;2.45;;
58372;SDS011;44177;43.356;27.672;2022-12-29T11:42:18;3.60;;;2.63;;
58372;SDS011;44177;43.356;27.672;2022-12-29T11:44:48;2.92;;;2.17;;
58372;SDS011;44177;43.356;27.672;2022-12-29T11:47:30;3.78;;;2.40;;
58372;SDS011;44177;43.356;27.672;2022-12-29T11:50:02;3.60;;;2.60;;
58372;SDS011;44177;43.356;27.672;2022-12-29T11:52:32;3.70;;;2.50;;
58372;SDS011;44177;43.356;27.672;2022-12-29T11:55:01;4.05;;;2.53;;
58372;SDS011;44177;43.356;27.672;2022-12-29T11:57:30;2.90;;;2.50;;
58372;SDS011;44177;43.356;27.672;2022-12-29T11:59:59;3.30;;;2.60;;
58372;SDS011;44177;43.356;27.672;2022-12-29T12:05:10;4.25;;;2.50;;
58372;SDS011;44177;43.356;27.672;2022-12-29T12:07:38;3.17;;;2.50;;
58372;SDS011;44177;43.356;27.672;2022-12-29T12:13:29;3.25;;;2.40;;
58372;SDS011;44177;43.356;27.672;2022-12-29T12:16:04;3.65;;;2.40;;
58372;SDS011;44177;43.356;27.672;2022-12-29T12:18:37;4.18;;;2.50;;
58372;SDS011;44177;43.356;27.672;2022-12-29T12:21:08;4.88;;;2.88;;
58372;SDS011;44177;43.356;27.672;2022-12-29T12:35:12;4.15;;;2.63;;
58372;SDS011;44177;43.356;27.672;2022-12-29T12:43:18;5.10;;;2.53;;
58372;SDS011;44177;43.356;27.672;2022-12-29T13:10:29;3.08;;;2.47;;
58372;SDS011;44177;43.356;27.672;2022-12-29T13:26:38;3.95;;;2.80;;
58372;SDS011;44177;43.356;27.672;2022-12-29T13:29:23;4.57;;;2.67;;
58372;SDS011;44177;43.356;27.672;2022-12-29T13:38:04;3.17;;;2.72;;
58372;SDS011;44177;43.356;27.672;2022-12-29T13:40:45;4.70;;;2.40;;
58372;SDS011;44177;43.356;27.672;2022-12-29T13:43:15;3.83;;;2.60;;
58372;SDS011;44177;43.356;27.672;2022-12-29T13:45:43;3.25;;;2.67;;
58372;SDS011;44177;43.356;27.672;2022-12-29T13:50:55;3.25;;;2.55;;
58372;SDS011;44177;43.356;27.672;2022-12-29T13:56:49;5.07;;;3.20;;
58372;SDS011;44177;43.356;27.672;2022-12-29T14:02:44;3.47;;;2.67;;
58372;SDS011;44177;43.356;27.672;2022-12-29T14:07:45;3.63;;;2.72;;
58372;SDS011;44177;43.356;27.672;2022-12-29T14:13:14;3.70;;;2.75;;
58372;SDS011;44177;43.356;27.672;2022-12-29T14:15:54;4.20;;;2.83;;
58372;SDS011;44177;43.356;27.672;2022-12-29T14:18:25;4.38;;;3.05;;
58372;SDS011;44177;43.356;27.672;2022-12-29T14:28:32;5.22;;;2.78;;
58372;SDS011;44177;43.356;27.672;2022-12-29T14:30:59;3.53;;;3.17;;
58372;SDS011;44177;43.356;27.672;2022-12-29T14:33:28;5.10;;;3.28;;
58372;SDS011;44177;43.356;27.672;2022-12-29T14:36:18;4.80;;;3.47;;
58372;SDS011;44177;43.356;27.672;2022-12-29T14:38:45;4.60;;;3.20;;
58372;SDS011;44177;43.356;27.672;2022-12-29T14:43:56;4.32;;;3.15;;
58372;SDS011;44177;43.356;27.672;2022-12-29T14:46:24;4.75;;;3.78;;
58372;SDS011;44177;43.356;27.672;2022-12-29T14:48:55;4.75;;;3.70;;
58372;SDS011;44177;43.356;27.672;2022-12-29T14:51:34;4.15;;;3.08;;
58372;SDS011;44177;43.356;27.672;2022-12-29T14:54:07;4.85;;;3.53;;
58372;SDS011;44177;43.356;27.672;2022-12-29T14:57:02;4.95;;;3.47;;
58372;SDS011;44177;43.356;27.672;2022-12-29T14:59:30;4.97;;;3.67;;
58372;SDS011;44177;43.356;27.672;2022-12-29T15:01:58;4.22;;;3.50;;
58372;SDS011;44177;43.356;27.672;2022-12-29T15:04:32;5.30;;;3.75;;
58372;SDS011;44177;43.356;27.672;2022-12-29T15:07:00;5.30;;;3.70;;
58372;SDS011;44177;43.356;27.672;2022-12-29T15:14:56;5.13;;;3.83;;
58372;SDS011;44177;43.356;27.672;2022-12-29T15:17:24;5.80;;;4.43;;
58372;SDS011;44177;43.356;27.672;2022-12-29T15:19:56;7.72;;;4.20;;
58372;SDS011;44177;43.356;27.672;2022-12-29T15:22:23;7.03;;;4.45;;
58372;SDS011;44177;43.356;27.672;2022-12-29T15:24:50;5.43;;;3.95;;
58372;SDS011;44177;43.356;27.672;2022-12-29T15:27:21;5.07;;;3.90;;
58372;SDS011;44177;43.356;27.672;2022-12-29T15:29:55;7.28;;;4.07;;
58372;SDS011;44177;43.356;27.672;2022-12-29T15:32:27;6.65;;;4.78;;
58372;SDS011;44177;43.356;27.672;2022-12-29T15:34:55;5.53;;;4.28;;
58372;SDS011;44177;43.356;27.672;2022-12-29T15:37:32;5.18;;;4.10;;
58372;SDS011;44177;43.356;27.672;2022-12-29T15:45:11;5.88;;;4.18;;
58372;SDS011;44177;43.356;27.672;2022-12-29T15:47:38;5.72;;;4.53;;
58372;SDS011;44177;43.356;27.672;2022-12-29T15:50:13;8.15;;;4.65;;
58372;SDS011;44177;43.356;27.672;2022-12-29T15:52:46;6.47;;;4.18;;
58372;SDS011;44177;43.356;27.672;2022-12-29T15:55:30;7.18;;;4.72;;
58372;SDS011;44177;43.356;27.672;2022-12-29T16:00:29;6.63;;;4.60;;
58372;SDS011;44177;43.356;27.672;2022-12-29T16:02:58;7.53;;;4.57;;
58372;SDS011;44177;43.356;27.672;2022-12-29T16:05:33;6.38;;;4.57;;
58372;SDS011;44177;43.356;27.672;2022-12-29T16:08:00;5.80;;;4.22;;
58372;SDS011;44177;43.356;27.672;2022-12-29T16:13:05;7.07;;;4.78;;
58372;SDS011;44177;43.356;27.672;2022-12-29T16:15:36;6.15;;;4.97;;
58372;SDS011;44177;43.356;27.672;2022-12-29T16:18:02;6.00;;;4.80;;
58372;SDS011;44177;43.356;27.672;2022-12-29T16:20:46;5.75;;;4.20;;
58372;SDS011;44177;43.356;27.672;2022-12-29T16:23:17;7.90;;;4.97;;
58372;SDS011;44177;43.356;27.672;2022-12-29T16:25:46;6.40;;;4.32;;
58372;SDS011;44177;43.356;27.672;2022-12-29T16:28:57;6.32;;;4.60;;
58372;SDS011;44177;43.356;27.672;2022-12-29T16:31:23;6.57;;;4.70;;
58372;SDS011;44177;43.356;27.672;2022-12-29T16:33:54;7.15;;;4.60;;
58372;SDS011;44177;43.356;27.672;2022-12-29T16:39:34;7.05;;;4.88;;
58372;SDS011;44177;43.356;27.672;2022-12-29T16:47:44;6.95;;;4.68;;
58372;SDS011;44177;43.356;27.672;2022-12-29T16:50:17;6.10;;;4.53;;
58372;SDS011;44177;43.356;27.672;2022-12-29T16:52:50;7.07;;;4.85;;
58372;SDS011;44177;43.356;27.672;2022-12-29T16:55:16;5.65;;;4.35;;
58372;SDS011;44177;43.356;27.672;2022-12-29T16:57:43;6.80;;;4.80;;
58372;SDS011;44177;43.356;27.672;2022-12-29T17:00:20;7.68;;;4.70;;
58372;SDS011;44177;43.356;27.672;2022-12-29T17:02:47;6.45;;;4.47;;
58372;SDS011;44177;43.356;27.672;2022-12-29T17:05:15;6.63;;;4.75;;
58372;SDS011;44177;43.356;27.672;2022-12-29T17:07:42;6.80;;;4.70;;
58372;SDS011;44177;43.356;27.672;2022-12-29T17:10:09;6.93;;;4.20;;
58372;SDS011;44177;43.356;27.672;2022-12-29T17:12:35;6.13;;;4.30;;
58372;SDS011;44177;43.356;27.672;2022-12-29T17:17:42;6.82;;;4.53;;
58372;SDS011;44177;43.356;27.672;2022-12-29T17:22:41;6.05;;;4.82;;
58372;SDS011;44177;43.356;27.672;2022-12-29T17:25:10;7.25;;;4.90;;
58372;SDS011;44177;43.356;27.672;2022-12-29T17:27:38;7.97;;;4.88;;
58372;SDS011;44177;43.356;27.672;2022-12-29T17:30:15;6.68;;;4.45;;
58372;SDS011;44177;43.356;27.672;2022-12-29T17:32:45;6.90;;;5.10;;
58372;SDS011;44177;43.356;27.672;2022-12-29T17:35:16;5.75;;;4.18;;
58372;SDS011;44177;43.356;27.672;2022-12-29T17:37:42;6.13;;;4.43;;
58372;SDS011;44177;43.356;27.672;2022-12-29T17:40:18;7.45;;;4.40;;
58372;SDS011;44177;43.356;27.672;2022-12-29T17:42:51;5.10;;;4.43;;
58372;SDS011;44177;43.356;27.672;2022-12-29T17:45:23;5.72;;;4.68;;
58372;SDS011;44177;43.356;27.672;2022-12-29T17:47:53;5.82;;;4.60;;
58372;SDS011;44177;43.356;27.672;2022-12-29T17:50:20;5.60;;;4.47;;
58372;SDS011;44177;43.356;27.672;2022-12-29T17:52:59;6.35;;;4.13;;
58372;SDS011;44177;43.356;27.672;2022-12-29T17:55:28;6.53;;;4.72;;
58372;SDS011;44177;43.356;27.672;2022-12-29T17:57:54;5.85;;;4.78;;
58372;SDS011;44177;43.356;27.672;2022-12-29T18:00:21;7.32;;;4.85;;
58372;SDS011;44177;43.356;27.672;2022-12-29T18:02:48;6.22;;;4.68;;
58372;SDS011;44177;43.356;27.672;2022-12-29T18:05:15;5.78;;;4.63;;
58372;SDS011;44177;43.356;27.672;2022-12-29T18:07:53;6.70;;;4.72;;